Village of Oakview, Missouri
Current Conditions -  °F | °C
As of 1:54 PM on Friday 28 Nov 2014 (Local Time) from KMKC Reporting Station
Clear Clear  
Wind Chill: 59°   Ceiling: Unl
Heat Index: 59°   Visibility: 10mi
Dew Point: 31°   Wind: 12mph
Humidity: 35%   Direction: 230°SW
Pressure: 29.83"   Gusts: NA
Location:  39.213°N, 94.5752°W
Report Text: KMKC 281954Z 23010KT 10SM CLR 15/M01 A2983 RMK AO2 SLP102 T01501006
Loading
Personal Weather Stations






























Interactive Weather Map New forecast layout! Learn more

10-Day Weather Forecast

Advertisements
Track Severe Weather on mobile